EWG18N EDDH-LOWW
Flight info
| Callsign | EWG18N |
|---|---|
| Flight time | 1h 10m |
| Altitude | 37000 |
| Route | RAMAR6G/33 RAMAR Z998 RATMO DCT HDO DCT EVIKU DCT BITSI DCT MIKOV MIKOV8W |
| Aircraft | A320/M-SDE3FGHIRWY/LB1 |
Departure
| Time | 2026-04-26 18:10 |
|---|---|
| Airport | Hamburg Helmut Schmidt Airport (EDDH) |
Arrival
| Time | 2026-04-26 19:20 |
|---|---|
| Airport | Vienna International Airport (LOWW) |
| Time | Latitude | Longitude | Altitude | Speed | Heading |
|---|---|---|---|---|---|
| 2026-04-26 17:41 | 53.63073 | 10.00387 | 49 ft | 0 kts | 93° |
| 2026-04-26 17:42 | 53.62844 | 10.00216 | 49 ft | 0 kts | 62° |
| 2026-04-26 18:00 | 53.62842 | 10.00211 | 48 ft | 3 kts | 62° |
| 2026-04-26 18:00 | 53.62829 | 10.00172 | 45 ft | 4 kts | 55° |
| 2026-04-26 18:00 | 53.62812 | 10.00138 | 45 ft | 4 kts | 37° |
| 2026-04-26 18:00 | 53.62791 | 10.00121 | 46 ft | 4 kts | 347° |
| 2026-04-26 18:01 | 53.62781 | 10.00127 | 47 ft | 1 kts | 333° |
| 2026-04-26 18:01 | 53.62780 | 10.00127 | 46 ft | 0 kts | 333° |
| 2026-04-26 18:05 | 53.62781 | 10.00127 | 47 ft | 1 kts | 333° |
| 2026-04-26 18:05 | 53.62802 | 10.00109 | 45 ft | 6 kts | 333° |
| 2026-04-26 18:06 | 53.62846 | 10.00059 | 48 ft | 6 kts | 309° |
| 2026-04-26 18:06 | 53.62848 | 10.00051 | 48 ft | 0 kts | 300° |
| 2026-04-26 18:06 | 53.62851 | 10.00042 | 48 ft | 2 kts | 292° |
| 2026-04-26 18:06 | 53.62851 | 9.99993 | 48 ft | 5 kts | 261° |
| 2026-04-26 18:07 | 53.62844 | 9.99959 | 48 ft | 0 kts | 245° |
| 2026-04-26 18:08 | 53.62844 | 9.99958 | 48 ft | 1 kts | 245° |
| 2026-04-26 18:08 | 53.62835 | 9.99928 | 45 ft | 7 kts | 244° |
| 2026-04-26 18:09 | 53.62817 | 9.99807 | 45 ft | 14 kts | 290° |
| 2026-04-26 18:09 | 53.62854 | 9.99757 | 45 ft | 0 kts | 333° |
| 2026-04-26 18:09 | 53.62855 | 9.99757 | 45 ft | 1 kts | 333° |
| 2026-04-26 18:10 | 53.63011 | 9.99622 | 45 ft | 61 kts | 333° |
| 2026-04-26 18:10 | 53.63579 | 9.99131 | 47 ft | 121 kts | 333° |
| 2026-04-26 18:10 | 53.64471 | 9.98365 | 164 ft | 157 kts | 334° |
| 2026-04-26 18:10 | 53.65469 | 9.97547 | 792 ft | 163 kts | 334° |
| 2026-04-26 18:11 | 53.66503 | 9.96664 | 1460 ft | 170 kts | 333° |
| 2026-04-26 18:11 | 53.67590 | 9.95699 | 1936 ft | 183 kts | 331° |
| 2026-04-26 18:11 | 53.68771 | 9.94724 | 2400 ft | 200 kts | 342° |
| 2026-04-26 18:11 | 53.70201 | 9.94684 | 3070 ft | 205 kts | 5° |
| 2026-04-26 18:12 | 53.71617 | 9.95006 | 3877 ft | 208 kts | 6° |
| 2026-04-26 18:12 | 53.73072 | 9.95508 | 4460 ft | 222 kts | 25° |
| 2026-04-26 18:12 | 53.74266 | 9.97278 | 4921 ft | 245 kts | 58° |
| 2026-04-26 18:12 | 53.74821 | 9.99034 | 5193 ft | 262 kts | 62° |
| 2026-04-26 18:13 | 53.75933 | 10.02881 | 6093 ft | 277 kts | 62° |
| 2026-04-26 18:13 | 53.76484 | 10.04834 | 6700 ft | 279 kts | 62° |
| 2026-04-26 18:13 | 53.77597 | 10.08785 | 7853 ft | 283 kts | 61° |
| 2026-04-26 18:13 | 53.77885 | 10.09802 | 8156 ft | 283 kts | 61° |
| 2026-04-26 18:14 | 53.79024 | 10.13814 | 9322 ft | 287 kts | 60° |
| 2026-04-26 18:14 | 53.79903 | 10.16883 | 10046 ft | 292 kts | 60° |
| 2026-04-26 18:14 | 53.80792 | 10.19986 | 10241 ft | 292 kts | 60° |
| 2026-04-26 18:14 | 53.81706 | 10.23159 | 10302 ft | 311 kts | 60° |
| 2026-04-26 18:15 | 53.82646 | 10.26444 | 10314 ft | 319 kts | 60° |
| 2026-04-26 18:15 | 53.83555 | 10.29975 | 10780 ft | 336 kts | 70° |
| 2026-04-26 18:15 | 53.83785 | 10.33986 | 11451 ft | 350 kts | 93° |
| 2026-04-26 18:15 | 53.83079 | 10.37926 | 12155 ft | 361 kts | 117° |
| 2026-04-26 18:16 | 53.81521 | 10.41301 | 12881 ft | 367 kts | 132° |
| 2026-04-26 18:16 | 53.77985 | 10.47700 | 14324 ft | 375 kts | 133° |
| 2026-04-26 18:16 | 53.76181 | 10.50925 | 14970 ft | 379 kts | 133° |
| 2026-04-26 18:17 | 53.74359 | 10.54185 | 15602 ft | 383 kts | 133° |
| 2026-04-26 18:17 | 53.72522 | 10.57484 | 16234 ft | 386 kts | 133° |
| 2026-04-26 18:17 | 53.70695 | 10.60768 | 16861 ft | 390 kts | 133° |
| 2026-04-26 18:17 | 53.68828 | 10.64127 | 17488 ft | 393 kts | 133° |
| 2026-04-26 18:18 | 53.66946 | 10.67512 | 18106 ft | 397 kts | 133° |
| 2026-04-26 18:18 | 53.65044 | 10.70934 | 18703 ft | 401 kts | 134° |
| 2026-04-26 18:18 | 53.63128 | 10.74381 | 19238 ft | 404 kts | 134° |
| 2026-04-26 18:18 | 53.61186 | 10.77864 | 19772 ft | 408 kts | 134° |
| 2026-04-26 18:19 | 53.59254 | 10.81324 | 20303 ft | 411 kts | 134° |
| 2026-04-26 18:19 | 53.57281 | 10.84846 | 20840 ft | 414 kts | 134° |
| 2026-04-26 18:19 | 53.55294 | 10.88387 | 21367 ft | 418 kts | 134° |
| 2026-04-26 18:19 | 53.53281 | 10.91962 | 21909 ft | 422 kts | 134° |
| 2026-04-26 18:20 | 53.51245 | 10.95577 | 22397 ft | 426 kts | 134° |
| 2026-04-26 18:20 | 53.49222 | 10.99168 | 22898 ft | 430 kts | 134° |
| 2026-04-26 18:20 | 53.47157 | 11.02828 | 23218 ft | 432 kts | 134° |
| 2026-04-26 18:20 | 53.45760 | 11.05300 | 23275 ft | 432 kts | 134° |
| 2026-04-26 18:21 | 53.43018 | 11.10143 | 23294 ft | 432 kts | 134° |
| 2026-04-26 18:21 | 53.40949 | 11.13802 | 23295 ft | 432 kts | 134° |
| 2026-04-26 18:21 | 53.38871 | 11.17470 | 23295 ft | 432 kts | 134° |
| 2026-04-26 18:21 | 53.36800 | 11.21119 | 23297 ft | 432 kts | 134° |
| 2026-04-26 18:22 | 53.34752 | 11.24720 | 23293 ft | 432 kts | 134° |
| 2026-04-26 18:22 | 53.32679 | 11.28357 | 23295 ft | 432 kts | 134° |
| 2026-04-26 18:22 | 53.30594 | 11.32003 | 23295 ft | 432 kts | 135° |
| 2026-04-26 18:22 | 53.28513 | 11.35634 | 23306 ft | 432 kts | 135° |
| 2026-04-26 18:23 | 53.26428 | 11.39260 | 23291 ft | 432 kts | 135° |
| 2026-04-26 18:23 | 53.24311 | 11.42750 | 23292 ft | 432 kts | 137° |
| 2026-04-26 18:23 | 53.22106 | 11.46181 | 23292 ft | 432 kts | 139° |
| 2026-04-26 18:23 | 53.19867 | 11.49540 | 23294 ft | 432 kts | 140° |
| 2026-04-26 18:24 | 53.17616 | 11.52869 | 23282 ft | 431 kts | 140° |
| 2026-04-26 18:24 | 53.15364 | 11.56209 | 23420 ft | 433 kts | 139° |
| 2026-04-26 18:24 | 53.13120 | 11.59578 | 23966 ft | 435 kts | 139° |
| 2026-04-26 18:24 | 53.10904 | 11.62947 | 24394 ft | 438 kts | 139° |
| 2026-04-26 18:25 | 53.08655 | 11.66397 | 24809 ft | 441 kts | 139° |
| 2026-04-26 18:25 | 53.06372 | 11.69836 | 25228 ft | 443 kts | 140° |
| 2026-04-26 18:25 | 53.04002 | 11.73160 | 25618 ft | 445 kts | 142° |
| 2026-04-26 18:25 | 53.01568 | 11.76386 | 26016 ft | 448 kts | 144° |
| 2026-04-26 18:26 | 52.99095 | 11.79565 | 26382 ft | 450 kts | 144° |
| 2026-04-26 18:26 | 52.96606 | 11.82743 | 26750 ft | 453 kts | 144° |
| 2026-04-26 18:26 | 52.94107 | 11.85954 | 27122 ft | 455 kts | 144° |
| 2026-04-26 18:26 | 52.91603 | 11.89215 | 27487 ft | 458 kts | 143° |
| 2026-04-26 18:27 | 52.89136 | 11.92465 | 27842 ft | 460 kts | 143° |
| 2026-04-26 18:27 | 52.86624 | 11.95795 | 28198 ft | 463 kts | 143° |
| 2026-04-26 18:27 | 52.84105 | 11.99132 | 28542 ft | 465 kts | 143° |
| 2026-04-26 18:27 | 52.81569 | 12.02479 | 28883 ft | 467 kts | 143° |
| 2026-04-26 18:28 | 52.79015 | 12.05835 | 29214 ft | 470 kts | 143° |
| 2026-04-26 18:28 | 52.76442 | 12.09200 | 29536 ft | 472 kts | 143° |
| 2026-04-26 18:28 | 52.73861 | 12.12563 | 29848 ft | 474 kts | 143° |
| 2026-04-26 18:28 | 52.71262 | 12.15940 | 30171 ft | 476 kts | 144° |
| 2026-04-26 18:29 | 52.68647 | 12.19337 | 30453 ft | 479 kts | 144° |
| 2026-04-26 18:29 | 52.66061 | 12.22702 | 30698 ft | 480 kts | 143° |
| 2026-04-26 18:29 | 52.63433 | 12.26127 | 30944 ft | 482 kts | 144° |
| 2026-04-26 18:29 | 52.60795 | 12.29558 | 31162 ft | 484 kts | 144° |
| 2026-04-26 18:30 | 52.58148 | 12.32993 | 31421 ft | 485 kts | 144° |
| 2026-04-26 18:30 | 52.55492 | 12.36424 | 31654 ft | 486 kts | 144° |
| 2026-04-26 18:30 | 52.52830 | 12.39849 | 31959 ft | 485 kts | 144° |
| 2026-04-26 18:30 | 52.50169 | 12.43265 | 32287 ft | 484 kts | 144° |
| 2026-04-26 18:31 | 52.47513 | 12.46673 | 32608 ft | 483 kts | 144° |
| 2026-04-26 18:31 | 52.44886 | 12.50046 | 32930 ft | 483 kts | 144° |
| 2026-04-26 18:31 | 52.42245 | 12.53438 | 33244 ft | 483 kts | 144° |
| 2026-04-26 18:31 | 52.39603 | 12.56830 | 33522 ft | 483 kts | 144° |
| 2026-04-26 18:32 | 52.36959 | 12.60216 | 33826 ft | 482 kts | 144° |
| 2026-04-26 18:32 | 52.34311 | 12.63599 | 34139 ft | 482 kts | 144° |
| 2026-04-26 18:32 | 52.31667 | 12.66968 | 34425 ft | 481 kts | 144° |
| 2026-04-26 18:32 | 52.29027 | 12.70327 | 34707 ft | 480 kts | 144° |
| 2026-04-26 18:33 | 52.26385 | 12.73679 | 34964 ft | 480 kts | 144° |
| 2026-04-26 18:33 | 52.23748 | 12.77020 | 35212 ft | 479 kts | 144° |
| 2026-04-26 18:33 | 52.21146 | 12.80311 | 35449 ft | 479 kts | 144° |
| 2026-04-26 18:33 | 52.18513 | 12.83637 | 35664 ft | 479 kts | 144° |
| 2026-04-26 18:34 | 52.15844 | 12.87005 | 35907 ft | 479 kts | 144° |
| 2026-04-26 18:34 | 52.13250 | 12.90279 | 36123 ft | 478 kts | 144° |
| 2026-04-26 18:34 | 52.10615 | 12.93605 | 36328 ft | 478 kts | 144° |
| 2026-04-26 18:34 | 52.07973 | 12.96930 | 36536 ft | 478 kts | 144° |
| 2026-04-26 18:35 | 52.05344 | 13.00229 | 36733 ft | 478 kts | 144° |
| 2026-04-26 18:35 | 52.02710 | 13.03526 | 36939 ft | 477 kts | 144° |
| 2026-04-26 18:35 | 52.00074 | 13.06823 | 37163 ft | 476 kts | 144° |
| 2026-04-26 18:35 | 51.97472 | 13.10071 | 37284 ft | 476 kts | 144° |
| 2026-04-26 18:36 | 51.92219 | 13.16606 | 37305 ft | 474 kts | 144° |
| 2026-04-26 18:36 | 51.86985 | 13.23110 | 37301 ft | 474 kts | 144° |
| 2026-04-26 18:37 | 51.81778 | 13.29564 | 37297 ft | 474 kts | 144° |
| 2026-04-26 18:37 | 51.76519 | 13.36065 | 37301 ft | 474 kts | 144° |
| 2026-04-26 18:38 | 51.71274 | 13.42520 | 37306 ft | 474 kts | 145° |
| 2026-04-26 18:38 | 51.66030 | 13.48952 | 37308 ft | 473 kts | 145° |
| 2026-04-26 18:39 | 51.60814 | 13.55338 | 37313 ft | 473 kts | 145° |
| 2026-04-26 18:39 | 51.55571 | 13.61737 | 37327 ft | 473 kts | 145° |
| 2026-04-26 18:40 | 51.50312 | 13.68134 | 37311 ft | 473 kts | 145° |
| 2026-04-26 18:40 | 51.45093 | 13.74471 | 37298 ft | 473 kts | 145° |
| 2026-04-26 18:41 | 51.39827 | 13.80840 | 37308 ft | 472 kts | 145° |
| 2026-04-26 18:41 | 51.34602 | 13.87140 | 37315 ft | 472 kts | 145° |
| 2026-04-26 18:42 | 51.29336 | 13.93471 | 37307 ft | 472 kts | 145° |
| 2026-04-26 18:42 | 51.24108 | 13.99744 | 37309 ft | 472 kts | 145° |
| 2026-04-26 18:43 | 51.18855 | 14.06018 | 37288 ft | 471 kts | 145° |
| 2026-04-26 18:43 | 51.13605 | 14.12271 | 37302 ft | 471 kts | 145° |
| 2026-04-26 18:44 | 51.08343 | 14.18524 | 37308 ft | 470 kts | 145° |
| 2026-04-26 18:44 | 51.03120 | 14.24719 | 37309 ft | 470 kts | 145° |
| 2026-04-26 18:45 | 50.97865 | 14.30930 | 37312 ft | 470 kts | 145° |
| 2026-04-26 18:45 | 50.92375 | 14.36394 | 37304 ft | 466 kts | 159° |
| 2026-04-26 18:46 | 50.86211 | 14.39339 | 37294 ft | 461 kts | 170° |
| 2026-04-26 18:46 | 50.79962 | 14.41645 | 37297 ft | 461 kts | 170° |
| 2026-04-26 18:47 | 50.73710 | 14.43965 | 37302 ft | 461 kts | 170° |
| 2026-04-26 18:47 | 50.67494 | 14.46270 | 37307 ft | 461 kts | 170° |
| 2026-04-26 18:48 | 50.61238 | 14.48582 | 37299 ft | 461 kts | 170° |
| 2026-04-26 18:48 | 50.54980 | 14.50877 | 37307 ft | 460 kts | 170° |
| 2026-04-26 18:49 | 50.48819 | 14.53446 | 37312 ft | 463 kts | 161° |
| 2026-04-26 18:49 | 50.45897 | 14.55671 | 37309 ft | 466 kts | 150° |
| 2026-04-26 18:49 | 50.43240 | 14.58609 | 37303 ft | 468 kts | 141° |
| 2026-04-26 18:50 | 50.38536 | 14.65638 | 37287 ft | 469 kts | 137° |
| 2026-04-26 18:50 | 50.33830 | 14.72734 | 37290 ft | 469 kts | 137° |
| 2026-04-26 18:51 | 50.29117 | 14.79822 | 37289 ft | 469 kts | 137° |
| 2026-04-26 18:51 | 50.24434 | 14.86864 | 37295 ft | 469 kts | 137° |
| 2026-04-26 18:52 | 50.19717 | 14.93956 | 37284 ft | 470 kts | 137° |
| 2026-04-26 18:52 | 50.14992 | 15.01040 | 37281 ft | 470 kts | 137° |
| 2026-04-26 18:53 | 50.10290 | 15.08055 | 37284 ft | 471 kts | 138° |
| 2026-04-26 18:53 | 50.05541 | 15.15107 | 37283 ft | 471 kts | 138° |
| 2026-04-26 18:54 | 50.00797 | 15.22139 | 37290 ft | 471 kts | 138° |
| 2026-04-26 18:54 | 49.96048 | 15.29168 | 37273 ft | 472 kts | 138° |
| 2026-04-26 18:55 | 49.91304 | 15.36156 | 37273 ft | 472 kts | 138° |
| 2026-04-26 18:55 | 49.86528 | 15.43173 | 37269 ft | 472 kts | 138° |
| 2026-04-26 18:56 | 49.81754 | 15.50180 | 37262 ft | 472 kts | 138° |
| 2026-04-26 18:56 | 49.77012 | 15.57121 | 37275 ft | 472 kts | 139° |
| 2026-04-26 18:57 | 49.74610 | 15.60622 | 37083 ft | 472 kts | 139° |
| 2026-04-26 18:57 | 49.73804 | 15.61796 | 36991 ft | 472 kts | 139° |
| 2026-04-26 18:57 | 49.69820 | 15.67588 | 36557 ft | 472 kts | 139° |
| 2026-04-26 18:57 | 49.67425 | 15.71072 | 36168 ft | 473 kts | 139° |
| 2026-04-26 18:58 | 49.65036 | 15.74544 | 35208 ft | 480 kts | 139° |
| 2026-04-26 18:58 | 49.62606 | 15.78073 | 34609 ft | 478 kts | 139° |
| 2026-04-26 18:58 | 49.60183 | 15.81583 | 33972 ft | 475 kts | 139° |
| 2026-04-26 18:58 | 49.58586 | 15.83891 | 33565 ft | 473 kts | 139° |
| 2026-04-26 18:59 | 49.56189 | 15.87344 | 32986 ft | 469 kts | 139° |
| 2026-04-26 18:59 | 49.53808 | 15.90766 | 32378 ft | 466 kts | 139° |
| 2026-04-26 18:59 | 49.50679 | 15.95257 | 31620 ft | 462 kts | 139° |
| 2026-04-26 18:59 | 49.48326 | 15.98631 | 31039 ft | 460 kts | 139° |
| 2026-04-26 19:00 | 49.46775 | 16.00857 | 30662 ft | 458 kts | 139° |
| 2026-04-26 19:00 | 49.44441 | 16.04210 | 30053 ft | 456 kts | 140° |
| 2026-04-26 19:00 | 49.42126 | 16.07531 | 29490 ft | 452 kts | 140° |
| 2026-04-26 19:00 | 49.39828 | 16.10818 | 28942 ft | 448 kts | 140° |
| 2026-04-26 19:01 | 49.37585 | 16.14021 | 28420 ft | 444 kts | 140° |
| 2026-04-26 19:01 | 49.35328 | 16.17237 | 27893 ft | 440 kts | 140° |
| 2026-04-26 19:01 | 49.33093 | 16.20421 | 27394 ft | 436 kts | 140° |
| 2026-04-26 19:01 | 49.30765 | 16.23352 | 26915 ft | 429 kts | 149° |
| 2026-04-26 19:02 | 49.28206 | 16.25607 | 26475 ft | 420 kts | 158° |
| 2026-04-26 19:02 | 49.25615 | 16.27517 | 26027 ft | 416 kts | 158° |
| 2026-04-26 19:02 | 49.23018 | 16.29434 | 25593 ft | 412 kts | 158° |
| 2026-04-26 19:02 | 49.21308 | 16.30698 | 25271 ft | 410 kts | 158° |
| 2026-04-26 19:03 | 49.17795 | 16.32698 | 24866 ft | 393 kts | 172° |
| 2026-04-26 19:03 | 49.15128 | 16.33555 | 24457 ft | 390 kts | 172° |
| 2026-04-26 19:03 | 49.12482 | 16.34383 | 24026 ft | 387 kts | 173° |
| 2026-04-26 19:03 | 49.09853 | 16.35193 | 23561 ft | 384 kts | 173° |
| 2026-04-26 19:04 | 49.07270 | 16.35988 | 23061 ft | 382 kts | 173° |
| 2026-04-26 19:04 | 49.04663 | 16.36791 | 22587 ft | 380 kts | 172° |
| 2026-04-26 19:04 | 49.02078 | 16.37591 | 22087 ft | 378 kts | 172° |
| 2026-04-26 19:04 | 48.99513 | 16.38387 | 21651 ft | 375 kts | 172° |
| 2026-04-26 19:05 | 48.94424 | 16.39959 | 20768 ft | 371 kts | 172° |
| 2026-04-26 19:05 | 48.91929 | 16.40729 | 20327 ft | 369 kts | 172° |
| 2026-04-26 19:05 | 48.89408 | 16.41506 | 19900 ft | 368 kts | 172° |
| 2026-04-26 19:06 | 48.86899 | 16.42274 | 19463 ft | 367 kts | 172° |
| 2026-04-26 19:06 | 48.84397 | 16.43041 | 19042 ft | 366 kts | 172° |
| 2026-04-26 19:06 | 48.81905 | 16.43802 | 18640 ft | 365 kts | 172° |
| 2026-04-26 19:06 | 48.79420 | 16.44564 | 18209 ft | 363 kts | 172° |
| 2026-04-26 19:07 | 48.76953 | 16.45323 | 17778 ft | 360 kts | 171° |
| 2026-04-26 19:07 | 48.74504 | 16.46074 | 17385 ft | 358 kts | 171° |
| 2026-04-26 19:07 | 48.72066 | 16.46822 | 16988 ft | 356 kts | 171° |
| 2026-04-26 19:07 | 48.69642 | 16.47563 | 16596 ft | 354 kts | 171° |
| 2026-04-26 19:08 | 48.67264 | 16.48289 | 16223 ft | 352 kts | 171° |
| 2026-04-26 19:08 | 48.64871 | 16.49022 | 15844 ft | 350 kts | 171° |
| 2026-04-26 19:08 | 48.62486 | 16.49750 | 15469 ft | 348 kts | 171° |
| 2026-04-26 19:08 | 48.60115 | 16.50469 | 15098 ft | 346 kts | 171° |
| 2026-04-26 19:09 | 48.57758 | 16.51182 | 14737 ft | 344 kts | 171° |
| 2026-04-26 19:09 | 48.55413 | 16.51889 | 14403 ft | 342 kts | 171° |
| 2026-04-26 19:09 | 48.53094 | 16.52589 | 13941 ft | 345 kts | 171° |
| 2026-04-26 19:09 | 48.50726 | 16.53305 | 13419 ft | 347 kts | 171° |
| 2026-04-26 19:10 | 48.48357 | 16.54024 | 12884 ft | 347 kts | 171° |
| 2026-04-26 19:10 | 48.45979 | 16.54747 | 12374 ft | 348 kts | 171° |
| 2026-04-26 19:10 | 48.43600 | 16.55470 | 11863 ft | 348 kts | 171° |
| 2026-04-26 19:10 | 48.41256 | 16.56180 | 11385 ft | 347 kts | 171° |
| 2026-04-26 19:11 | 48.38885 | 16.56898 | 10893 ft | 347 kts | 171° |
| 2026-04-26 19:11 | 48.36534 | 16.57610 | 10407 ft | 338 kts | 171° |
| 2026-04-26 19:11 | 48.34274 | 16.58296 | 9911 ft | 325 kts | 171° |
| 2026-04-26 19:11 | 48.32093 | 16.58958 | 9383 ft | 314 kts | 171° |
| 2026-04-26 19:12 | 48.29977 | 16.59596 | 8851 ft | 305 kts | 172° |
| 2026-04-26 19:12 | 48.27909 | 16.60217 | 8327 ft | 301 kts | 172° |
| 2026-04-26 19:12 | 48.25869 | 16.60823 | 7872 ft | 302 kts | 173° |
| 2026-04-26 19:12 | 48.23808 | 16.61436 | 7432 ft | 302 kts | 173° |
| 2026-04-26 19:13 | 48.21766 | 16.62261 | 6983 ft | 305 kts | 162° |
| 2026-04-26 19:13 | 48.19857 | 16.63687 | 6532 ft | 307 kts | 149° |
| 2026-04-26 19:13 | 48.18178 | 16.65675 | 6069 ft | 308 kts | 136° |
| 2026-04-26 19:13 | 48.16823 | 16.68095 | 5619 ft | 306 kts | 123° |
| 2026-04-26 19:14 | 48.15803 | 16.70851 | 5263 ft | 299 kts | 114° |
| 2026-04-26 19:14 | 48.14891 | 16.73626 | 4940 ft | 292 kts | 114° |
| 2026-04-26 19:14 | 48.14009 | 16.76288 | 4646 ft | 278 kts | 114° |
| 2026-04-26 19:14 | 48.13441 | 16.77994 | 4472 ft | 275 kts | 114° |
| 2026-04-26 19:15 | 48.12283 | 16.81391 | 4126 ft | 273 kts | 120° |
| 2026-04-26 19:15 | 48.11001 | 16.83349 | 3871 ft | 262 kts | 148° |
| 2026-04-26 19:15 | 48.09326 | 16.84104 | 3615 ft | 246 kts | 180° |
| 2026-04-26 19:15 | 48.07717 | 16.83595 | 3377 ft | 235 kts | 202° |
| 2026-04-26 19:16 | 48.06230 | 16.82606 | 3111 ft | 232 kts | 214° |
| 2026-04-26 19:16 | 48.05135 | 16.80903 | 2988 ft | 226 kts | 243° |
| 2026-04-26 19:16 | 48.04635 | 16.78708 | 2996 ft | 219 kts | 268° |
| 2026-04-26 19:16 | 48.04748 | 16.76560 | 3002 ft | 201 kts | 291° |
| 2026-04-26 19:17 | 48.05270 | 16.74763 | 3032 ft | 175 kts | 300° |
| 2026-04-26 19:17 | 48.05779 | 16.73209 | 2888 ft | 160 kts | 301° |
| 2026-04-26 19:17 | 48.06243 | 16.71797 | 2733 ft | 147 kts | 301° |
| 2026-04-26 19:17 | 48.06687 | 16.70447 | 2540 ft | 143 kts | 302° |
| 2026-04-26 19:18 | 48.07126 | 16.69115 | 2360 ft | 142 kts | 302° |
| 2026-04-26 19:18 | 48.07567 | 16.67793 | 2174 ft | 142 kts | 302° |
| 2026-04-26 19:18 | 48.07997 | 16.66448 | 1960 ft | 144 kts | 300° |
| 2026-04-26 19:18 | 48.08420 | 16.65092 | 1724 ft | 144 kts | 300° |
| 2026-04-26 19:19 | 48.08860 | 16.63747 | 1501 ft | 143 kts | 302° |
| 2026-04-26 19:19 | 48.09313 | 16.62425 | 1313 ft | 142 kts | 300° |
| 2026-04-26 19:19 | 48.09746 | 16.61114 | 1115 ft | 139 kts | 298° |
| 2026-04-26 19:19 | 48.10153 | 16.59838 | 930 ft | 137 kts | 299° |
| 2026-04-26 19:20 | 48.10573 | 16.58584 | 774 ft | 131 kts | 298° |
| 2026-04-26 19:20 | 48.10838 | 16.57761 | 674 ft | 128 kts | 300° |
| 2026-04-26 19:20 | 48.11296 | 16.56363 | 618 ft | 85 kts | 296° |
| 2026-04-26 19:20 | 48.11481 | 16.55795 | 619 ft | 42 kts | 296° |
| 2026-04-26 19:21 | 48.11607 | 16.55441 | 614 ft | 34 kts | 306° |
| 2026-04-26 19:21 | 48.11719 | 16.55262 | 617 ft | 5 kts | 315° |
| 2026-04-26 19:21 | 48.11742 | 16.55227 | 610 ft | 4 kts | 316° |
| 2026-04-26 19:21 | 48.11761 | 16.55200 | 615 ft | 3 kts | 316° |
| 2026-04-26 19:22 | 48.11776 | 16.55179 | 610 ft | 3 kts | 319° |
| 2026-04-26 19:22 | 48.11792 | 16.55163 | 615 ft | 5 kts | 328° |
| 2026-04-26 19:22 | 48.11841 | 16.55140 | 617 ft | 10 kts | 354° |
| 2026-04-26 19:22 | 48.11876 | 16.55221 | 613 ft | 13 kts | 106° |
| 2026-04-26 19:23 | 48.11834 | 16.55364 | 614 ft | 16 kts | 102° |
| 2026-04-26 19:23 | 48.11912 | 16.55440 | 610 ft | 13 kts | 11° |
| 2026-04-26 19:23 | 48.11943 | 16.55458 | 610 ft | 4 kts | 27° |
| 2026-04-26 19:23 | 48.11988 | 16.55510 | 616 ft | 10 kts | 72° |
| 2026-04-26 19:24 | 48.11986 | 16.55580 | 610 ft | 4 kts | 99° |
| 2026-04-26 19:24 | 48.11984 | 16.55592 | 610 ft | 0 kts | 99° |